sensor_id;sensor_type;location;lat;lon;timestamp;P1;durP1;ratioP1;P2;durP2;ratioP2
47625;SDS011;33342;45.574;9.252;2023-03-31T00:00:50;7.63;;;2.05;;
47625;SDS011;33342;45.574;9.252;2023-03-31T00:03:18;9.27;;;2.53;;
47625;SDS011;33342;45.574;9.252;2023-03-31T00:05:59;7.20;;;2.58;;
47625;SDS011;33342;45.574;9.252;2023-03-31T00:08:27;8.05;;;2.30;;
47625;SDS011;33342;45.574;9.252;2023-03-31T00:11:01;7.30;;;2.50;;
47625;SDS011;33342;45.574;9.252;2023-03-31T00:13:29;5.10;;;2.10;;
47625;SDS011;33342;45.574;9.252;2023-03-31T00:16:00;8.35;;;2.53;;
47625;SDS011;33342;45.574;9.252;2023-03-31T00:18:33;9.85;;;2.58;;
47625;SDS011;33342;45.574;9.252;2023-03-31T00:21:13;8.52;;;2.40;;
47625;SDS011;33342;45.574;9.252;2023-03-31T00:23:55;7.82;;;2.75;;
47625;SDS011;33342;45.574;9.252;2023-03-31T00:26:23;6.07;;;2.55;;
47625;SDS011;33342;45.574;9.252;2023-03-31T00:28:51;10.02;;;2.65;;
47625;SDS011;33342;45.574;9.252;2023-03-31T00:31:19;10.90;;;3.00;;
47625;SDS011;33342;45.574;9.252;2023-03-31T00:33:48;9.25;;;2.22;;
47625;SDS011;33342;45.574;9.252;2023-03-31T00:36:15;5.63;;;1.95;;
47625;SDS011;33342;45.574;9.252;2023-03-31T00:38:56;6.72;;;2.22;;
47625;SDS011;33342;45.574;9.252;2023-03-31T00:41:34;9.35;;;2.78;;
47625;SDS011;33342;45.574;9.252;2023-03-31T00:44:15;10.55;;;2.67;;
47625;SDS011;33342;45.574;9.252;2023-03-31T00:49:33;9.45;;;2.80;;
47625;SDS011;33342;45.574;9.252;2023-03-31T00:52:07;9.60;;;2.50;;
47625;SDS011;33342;45.574;9.252;2023-03-31T00:54:41;9.13;;;2.70;;
47625;SDS011;33342;45.574;9.252;2023-03-31T00:57:11;12.48;;;2.55;;
47625;SDS011;33342;45.574;9.252;2023-03-31T00:59:45;9.48;;;2.85;;
47625;SDS011;33342;45.574;9.252;2023-03-31T01:02:16;5.88;;;2.47;;
47625;SDS011;33342;45.574;9.252;2023-03-31T01:04:47;10.73;;;2.67;;
47625;SDS011;33342;45.574;9.252;2023-03-31T01:07:30;11.80;;;2.90;;
47625;SDS011;33342;45.574;9.252;2023-03-31T01:10:10;11.57;;;2.90;;
47625;SDS011;33342;45.574;9.252;2023-03-31T01:12:38;14.27;;;5.65;;
47625;SDS011;33342;45.574;9.252;2023-03-31T01:15:08;11.48;;;4.53;;
47625;SDS011;33342;45.574;9.252;2023-03-31T01:17:36;14.07;;;4.40;;
47625;SDS011;33342;45.574;9.252;2023-03-31T01:31:57;8.73;;;3.60;;
47625;SDS011;33342;45.574;9.252;2023-03-31T01:34:56;8.77;;;3.83;;
47625;SDS011;33342;45.574;9.252;2023-03-31T01:46:28;9.20;;;2.55;;
47625;SDS011;33342;45.574;9.252;2023-03-31T01:54:35;8.55;;;2.10;;
47625;SDS011;33342;45.574;9.252;2023-03-31T01:57:15;5.68;;;1.90;;
47625;SDS011;33342;45.574;9.252;2023-03-31T02:02:44;7.05;;;2.00;;
47625;SDS011;33342;45.574;9.252;2023-03-31T02:05:19;7.05;;;2.22;;
47625;SDS011;33342;45.574;9.252;2023-03-31T02:10:20;7.75;;;2.33;;
47625;SDS011;33342;45.574;9.252;2023-03-31T02:12:50;5.97;;;2.83;;
47625;SDS011;33342;45.574;9.252;2023-03-31T02:15:21;8.80;;;2.95;;
47625;SDS011;33342;45.574;9.252;2023-03-31T02:17:53;6.85;;;2.92;;
47625;SDS011;33342;45.574;9.252;2023-03-31T02:20:23;8.32;;;2.28;;
47625;SDS011;33342;45.574;9.252;2023-03-31T02:22:53;9.93;;;3.10;;
47625;SDS011;33342;45.574;9.252;2023-03-31T02:25:23;8.95;;;2.30;;
47625;SDS011;33342;45.574;9.252;2023-03-31T02:27:56;12.32;;;2.75;;
47625;SDS011;33342;45.574;9.252;2023-03-31T02:30:28;5.85;;;2.00;;
47625;SDS011;33342;45.574;9.252;2023-03-31T02:33:17;6.70;;;2.25;;
47625;SDS011;33342;45.574;9.252;2023-03-31T02:35:44;9.93;;;1.85;;
47625;SDS011;33342;45.574;9.252;2023-03-31T02:38:11;8.63;;;2.53;;
47625;SDS011;33342;45.574;9.252;2023-03-31T02:40:39;8.77;;;2.65;;
47625;SDS011;33342;45.574;9.252;2023-03-31T02:43:06;8.40;;;1.90;;
47625;SDS011;33342;45.574;9.252;2023-03-31T02:45:41;7.30;;;1.90;;
47625;SDS011;33342;45.574;9.252;2023-03-31T02:48:33;7.57;;;2.00;;
47625;SDS011;33342;45.574;9.252;2023-03-31T02:53:47;7.13;;;1.80;;
47625;SDS011;33342;45.574;9.252;2023-03-31T02:56:55;6.05;;;1.85;;
47625;SDS011;33342;45.574;9.252;2023-03-31T03:08:56;4.57;;;1.90;;
47625;SDS011;33342;45.574;9.252;2023-03-31T03:11:38;9.73;;;2.80;;
47625;SDS011;33342;45.574;9.252;2023-03-31T03:17:09;7.78;;;2.50;;
47625;SDS011;33342;45.574;9.252;2023-03-31T03:19:42;10.35;;;3.58;;
47625;SDS011;33342;45.574;9.252;2023-03-31T03:22:09;6.57;;;2.70;;
47625;SDS011;33342;45.574;9.252;2023-03-31T03:24:36;9.50;;;2.78;;
47625;SDS011;33342;45.574;9.252;2023-03-31T03:27:05;11.43;;;2.47;;
47625;SDS011;33342;45.574;9.252;2023-03-31T03:29:32;13.00;;;4.20;;
47625;SDS011;33342;45.574;9.252;2023-03-31T03:31:59;12.27;;;3.20;;
47625;SDS011;33342;45.574;9.252;2023-03-31T03:34:26;9.25;;;3.40;;
47625;SDS011;33342;45.574;9.252;2023-03-31T03:36:53;7.70;;;3.25;;
47625;SDS011;33342;45.574;9.252;2023-03-31T03:39:19;10.00;;;2.70;;
47625;SDS011;33342;45.574;9.252;2023-03-31T03:41:46;10.45;;;3.28;;
47625;SDS011;33342;45.574;9.252;2023-03-31T03:44:13;8.38;;;3.67;;
47625;SDS011;33342;45.574;9.252;2023-03-31T03:46:40;9.23;;;2.70;;
47625;SDS011;33342;45.574;9.252;2023-03-31T03:49:07;7.40;;;2.55;;
47625;SDS011;33342;45.574;9.252;2023-03-31T03:51:34;9.23;;;3.30;;
47625;SDS011;33342;45.574;9.252;2023-03-31T03:54:01;10.77;;;3.85;;
47625;SDS011;33342;45.574;9.252;2023-03-31T03:56:28;9.45;;;3.15;;
47625;SDS011;33342;45.574;9.252;2023-03-31T03:58:55;11.75;;;2.92;;
47625;SDS011;33342;45.574;9.252;2023-03-31T04:01:23;7.45;;;2.70;;
47625;SDS011;33342;45.574;9.252;2023-03-31T04:03:50;8.63;;;2.55;;
47625;SDS011;33342;45.574;9.252;2023-03-31T04:06:17;7.60;;;2.40;;
47625;SDS011;33342;45.574;9.252;2023-03-31T04:08:44;10.63;;;2.78;;
47625;SDS011;33342;45.574;9.252;2023-03-31T04:11:15;9.07;;;2.55;;
47625;SDS011;33342;45.574;9.252;2023-03-31T04:13:45;7.63;;;2.50;;
47625;SDS011;33342;45.574;9.252;2023-03-31T04:16:13;10.85;;;3.35;;
47625;SDS011;33342;45.574;9.252;2023-03-31T04:18:40;8.48;;;3.22;;
47625;SDS011;33342;45.574;9.252;2023-03-31T04:21:08;6.43;;;2.20;;
47625;SDS011;33342;45.574;9.252;2023-03-31T04:23:38;6.20;;;2.53;;
47625;SDS011;33342;45.574;9.252;2023-03-31T04:26:13;9.70;;;2.50;;
47625;SDS011;33342;45.574;9.252;2023-03-31T04:28:41;6.20;;;2.60;;
47625;SDS011;33342;45.574;9.252;2023-03-31T04:31:13;7.78;;;2.33;;
47625;SDS011;33342;45.574;9.252;2023-03-31T04:33:42;9.88;;;2.97;;
47625;SDS011;33342;45.574;9.252;2023-03-31T04:36:11;5.68;;;2.05;;
47625;SDS011;33342;45.574;9.252;2023-03-31T04:38:45;8.85;;;2.10;;
47625;SDS011;33342;45.574;9.252;2023-03-31T04:41:16;9.55;;;2.13;;
47625;SDS011;33342;45.574;9.252;2023-03-31T04:43:43;8.82;;;2.20;;
47625;SDS011;33342;45.574;9.252;2023-03-31T04:46:10;6.68;;;1.88;;
47625;SDS011;33342;45.574;9.252;2023-03-31T04:48:37;7.05;;;2.50;;
47625;SDS011;33342;45.574;9.252;2023-03-31T04:51:04;7.22;;;1.90;;
47625;SDS011;33342;45.574;9.252;2023-03-31T04:53:32;8.18;;;2.53;;
47625;SDS011;33342;45.574;9.252;2023-03-31T04:55:59;7.40;;;2.28;;
47625;SDS011;33342;45.574;9.252;2023-03-31T04:58:26;7.95;;;1.98;;
47625;SDS011;33342;45.574;9.252;2023-03-31T05:00:53;5.00;;;2.00;;
47625;SDS011;33342;45.574;9.252;2023-03-31T05:03:20;7.20;;;1.88;;
47625;SDS011;33342;45.574;9.252;2023-03-31T05:05:47;9.23;;;2.30;;
47625;SDS011;33342;45.574;9.252;2023-03-31T05:08:14;10.85;;;2.25;;
47625;SDS011;33342;45.574;9.252;2023-03-31T05:10:41;5.43;;;1.88;;
47625;SDS011;33342;45.574;9.252;2023-03-31T05:13:08;12.60;;;2.20;;
47625;SDS011;33342;45.574;9.252;2023-03-31T05:15:39;6.63;;;1.95;;
47625;SDS011;33342;45.574;9.252;2023-03-31T05:18:06;9.15;;;2.13;;
47625;SDS011;33342;45.574;9.252;2023-03-31T05:20:33;7.03;;;1.95;;
47625;SDS011;33342;45.574;9.252;2023-03-31T05:23:00;4.20;;;1.60;;
47625;SDS011;33342;45.574;9.252;2023-03-31T05:25:27;8.82;;;2.40;;
47625;SDS011;33342;45.574;9.252;2023-03-31T05:27:58;7.50;;;2.08;;
47625;SDS011;33342;45.574;9.252;2023-03-31T05:30:26;6.22;;;2.47;;
47625;SDS011;33342;45.574;9.252;2023-03-31T05:32:54;8.15;;;2.22;;
47625;SDS011;33342;45.574;9.252;2023-03-31T05:35:22;9.65;;;2.13;;
47625;SDS011;33342;45.574;9.252;2023-03-31T05:37:49;7.00;;;2.33;;
47625;SDS011;33342;45.574;9.252;2023-03-31T05:40:16;10.73;;;2.90;;
47625;SDS011;33342;45.574;9.252;2023-03-31T05:42:43;12.68;;;2.33;;
47625;SDS011;33342;45.574;9.252;2023-03-31T05:45:10;10.82;;;3.63;;
47625;SDS011;33342;45.574;9.252;2023-03-31T05:47:38;9.82;;;2.58;;
47625;SDS011;33342;45.574;9.252;2023-03-31T05:50:05;9.57;;;2.72;;
47625;SDS011;33342;45.574;9.252;2023-03-31T05:52:34;11.15;;;2.60;;
47625;SDS011;33342;45.574;9.252;2023-03-31T05:55:02;12.38;;;2.67;;
47625;SDS011;33342;45.574;9.252;2023-03-31T05:57:29;12.82;;;2.42;;
47625;SDS011;33342;45.574;9.252;2023-03-31T05:59:57;8.70;;;2.47;;
47625;SDS011;33342;45.574;9.252;2023-03-31T06:02:24;13.48;;;3.80;;
47625;SDS011;33342;45.574;9.252;2023-03-31T06:04:51;9.70;;;2.80;;
47625;SDS011;33342;45.574;9.252;2023-03-31T06:07:18;10.10;;;2.42;;
47625;SDS011;33342;45.574;9.252;2023-03-31T06:09:47;10.23;;;2.40;;
47625;SDS011;33342;45.574;9.252;2023-03-31T06:12:14;9.30;;;3.40;;
47625;SDS011;33342;45.574;9.252;2023-03-31T06:14:42;9.20;;;2.58;;
47625;SDS011;33342;45.574;9.252;2023-03-31T06:17:09;5.95;;;2.40;;
47625;SDS011;33342;45.574;9.252;2023-03-31T06:19:36;13.88;;;3.88;;
47625;SDS011;33342;45.574;9.252;2023-03-31T06:22:03;8.00;;;2.92;;
47625;SDS011;33342;45.574;9.252;2023-03-31T06:24:30;9.00;;;3.00;;
47625;SDS011;33342;45.574;9.252;2023-03-31T06:26:57;12.82;;;6.10;;
47625;SDS011;33342;45.574;9.252;2023-03-31T06:29:26;10.00;;;3.33;;
47625;SDS011;33342;45.574;9.252;2023-03-31T06:31:53;9.88;;;3.40;;
47625;SDS011;33342;45.574;9.252;2023-03-31T06:34:20;13.63;;;4.25;;
47625;SDS011;33342;45.574;9.252;2023-03-31T06:36:47;10.90;;;4.20;;
47625;SDS011;33342;45.574;9.252;2023-03-31T06:39:14;8.82;;;2.72;;
47625;SDS011;33342;45.574;9.252;2023-03-31T06:41:41;11.70;;;3.15;;
47625;SDS011;33342;45.574;9.252;2023-03-31T06:44:08;10.45;;;3.00;;
47625;SDS011;33342;45.574;9.252;2023-03-31T06:46:35;9.45;;;2.88;;
47625;SDS011;33342;45.574;9.252;2023-03-31T06:49:03;13.82;;;2.90;;
47625;SDS011;33342;45.574;9.252;2023-03-31T06:51:29;12.10;;;2.97;;
47625;SDS011;33342;45.574;9.252;2023-03-31T06:53:58;12.73;;;4.03;;
47625;SDS011;33342;45.574;9.252;2023-03-31T06:56:25;10.52;;;2.95;;
47625;SDS011;33342;45.574;9.252;2023-03-31T06:58:53;13.43;;;3.30;;
47625;SDS011;33342;45.574;9.252;2023-03-31T07:01:20;13.90;;;3.50;;
47625;SDS011;33342;45.574;9.252;2023-03-31T07:03:47;9.68;;;2.65;;
47625;SDS011;33342;45.574;9.252;2023-03-31T07:06:15;9.32;;;3.03;;
47625;SDS011;33342;45.574;9.252;2023-03-31T07:08:42;13.93;;;4.32;;
47625;SDS011;33342;45.574;9.252;2023-03-31T07:11:08;9.48;;;3.10;;
47625;SDS011;33342;45.574;9.252;2023-03-31T07:13:36;10.30;;;3.78;;
47625;SDS011;33342;45.574;9.252;2023-03-31T07:16:04;13.77;;;3.20;;
47625;SDS011;33342;45.574;9.252;2023-03-31T07:18:33;13.25;;;2.90;;
47625;SDS011;33342;45.574;9.252;2023-03-31T07:21:02;11.77;;;2.75;;
47625;SDS011;33342;45.574;9.252;2023-03-31T07:23:34;9.43;;;2.17;;
47625;SDS011;33342;45.574;9.252;2023-03-31T07:26:02;9.60;;;2.10;;
47625;SDS011;33342;45.574;9.252;2023-03-31T07:28:29;11.93;;;2.53;;
47625;SDS011;33342;45.574;9.252;2023-03-31T07:30:57;14.43;;;3.70;;
47625;SDS011;33342;45.574;9.252;2023-03-31T07:33:24;12.48;;;3.97;;
47625;SDS011;33342;45.574;9.252;2023-03-31T07:35:51;10.55;;;2.38;;
47625;SDS011;33342;45.574;9.252;2023-03-31T07:38:36;12.82;;;2.90;;
47625;SDS011;33342;45.574;9.252;2023-03-31T07:41:03;8.15;;;2.90;;
47625;SDS011;33342;45.574;9.252;2023-03-31T07:43:35;14.02;;;3.42;;
47625;SDS011;33342;45.574;9.252;2023-03-31T07:46:02;13.70;;;2.70;;
47625;SDS011;33342;45.574;9.252;2023-03-31T07:48:31;9.70;;;3.50;;
47625;SDS011;33342;45.574;9.252;2023-03-31T07:50:59;12.35;;;3.60;;
47625;SDS011;33342;45.574;9.252;2023-03-31T07:53:31;14.90;;;4.20;;
47625;SDS011;33342;45.574;9.252;2023-03-31T07:55:57;13.93;;;3.22;;
47625;SDS011;33342;45.574;9.252;2023-03-31T07:58:25;12.95;;;3.55;;
47625;SDS011;33342;45.574;9.252;2023-03-31T08:00:52;11.13;;;4.03;;
47625;SDS011;33342;45.574;9.252;2023-03-31T08:03:19;9.85;;;3.65;;
47625;SDS011;33342;45.574;9.252;2023-03-31T08:05:46;14.23;;;2.85;;
47625;SDS011;33342;45.574;9.252;2023-03-31T08:08:18;10.93;;;3.25;;
47625;SDS011;33342;45.574;9.252;2023-03-31T08:10:46;11.30;;;3.55;;
47625;SDS011;33342;45.574;9.252;2023-03-31T08:13:13;7.45;;;2.65;;
47625;SDS011;33342;45.574;9.252;2023-03-31T08:15:40;9.93;;;3.00;;
47625;SDS011;33342;45.574;9.252;2023-03-31T08:18:08;13.07;;;3.58;;
47625;SDS011;33342;45.574;9.252;2023-03-31T08:20:35;6.68;;;2.83;;
47625;SDS011;33342;45.574;9.252;2023-03-31T08:23:04;12.05;;;3.88;;
47625;SDS011;33342;45.574;9.252;2023-03-31T08:25:34;13.57;;;4.13;;
47625;SDS011;33342;45.574;9.252;2023-03-31T08:28:01;10.57;;;4.68;;
47625;SDS011;33342;45.574;9.252;2023-03-31T08:30:28;20.45;;;7.65;;
47625;SDS011;33342;45.574;9.252;2023-03-31T08:32:55;17.45;;;4.45;;
47625;SDS011;33342;45.574;9.252;2023-03-31T08:35:22;9.20;;;3.38;;
47625;SDS011;33342;45.574;9.252;2023-03-31T08:37:49;13.88;;;4.40;;
47625;SDS011;33342;45.574;9.252;2023-03-31T08:40:18;13.77;;;3.65;;
47625;SDS011;33342;45.574;9.252;2023-03-31T08:42:51;11.77;;;3.70;;
47625;SDS011;33342;45.574;9.252;2023-03-31T08:45:54;11.60;;;4.32;;
47625;SDS011;33342;45.574;9.252;2023-03-31T08:50:58;12.50;;;2.97;;
47625;SDS011;33342;45.574;9.252;2023-03-31T08:53:31;14.43;;;3.95;;
47625;SDS011;33342;45.574;9.252;2023-03-31T08:56:13;13.35;;;4.43;;
47625;SDS011;33342;45.574;9.252;2023-03-31T08:58:43;14.13;;;5.00;;
47625;SDS011;33342;45.574;9.252;2023-03-31T09:07:04;13.25;;;4.30;;
47625;SDS011;33342;45.574;9.252;2023-03-31T09:17:52;14.02;;;4.60;;
47625;SDS011;33342;45.574;9.252;2023-03-31T09:20:30;13.32;;;4.82;;
47625;SDS011;33342;45.574;9.252;2023-03-31T09:25:52;11.48;;;3.55;;
47625;SDS011;33342;45.574;9.252;2023-03-31T09:28:25;17.40;;;4.80;;
47625;SDS011;33342;45.574;9.252;2023-03-31T09:31:12;11.02;;;3.65;;
47625;SDS011;33342;45.574;9.252;2023-03-31T09:33:41;13.88;;;5.55;;
47625;SDS011;33342;45.574;9.252;2023-03-31T09:36:15;17.08;;;4.68;;
47625;SDS011;33342;45.574;9.252;2023-03-31T09:38:45;16.17;;;5.55;;
47625;SDS011;33342;45.574;9.252;2023-03-31T09:41:13;13.05;;;5.75;;
47625;SDS011;33342;45.574;9.252;2023-03-31T09:43:42;11.48;;;4.63;;
47625;SDS011;33342;45.574;9.252;2023-03-31T09:46:14;13.05;;;4.05;;
47625;SDS011;33342;45.574;9.252;2023-03-31T09:48:47;18.77;;;6.00;;
47625;SDS011;33342;45.574;9.252;2023-03-31T09:51:22;14.45;;;5.70;;
47625;SDS011;33342;45.574;9.252;2023-03-31T09:53:57;13.25;;;5.38;;
47625;SDS011;33342;45.574;9.252;2023-03-31T09:56:52;11.93;;;4.40;;
47625;SDS011;33342;45.574;9.252;2023-03-31T09:59:20;8.57;;;4.13;;
47625;SDS011;33342;45.574;9.252;2023-03-31T10:01:50;16.77;;;6.43;;
47625;SDS011;33342;45.574;9.252;2023-03-31T10:04:22;14.73;;;5.40;;
47625;SDS011;33342;45.574;9.252;2023-03-31T10:06:51;14.05;;;5.55;;
47625;SDS011;33342;45.574;9.252;2023-03-31T10:09:20;14.80;;;4.85;;
47625;SDS011;33342;45.574;9.252;2023-03-31T10:11:57;15.45;;;5.47;;
47625;SDS011;33342;45.574;9.252;2023-03-31T10:14:34;18.38;;;5.25;;
47625;SDS011;33342;45.574;9.252;2023-03-31T10:17:11;10.98;;;3.75;;
47625;SDS011;33342;45.574;9.252;2023-03-31T10:19:50;17.30;;;5.80;;
47625;SDS011;33342;45.574;9.252;2023-03-31T10:22:43;13.25;;;4.65;;
47625;SDS011;33342;45.574;9.252;2023-03-31T10:25:19;9.30;;;4.07;;
47625;SDS011;33342;45.574;9.252;2023-03-31T10:27:51;15.77;;;5.45;;
47625;SDS011;33342;45.574;9.252;2023-03-31T10:30:23;14.85;;;4.72;;
47625;SDS011;33342;45.574;9.252;2023-03-31T10:32:52;13.20;;;4.68;;
47625;SDS011;33342;45.574;9.252;2023-03-31T10:35:24;12.65;;;4.80;;
47625;SDS011;33342;45.574;9.252;2023-03-31T10:38:05;13.85;;;5.20;;
47625;SDS011;33342;45.574;9.252;2023-03-31T10:40:37;15.82;;;5.10;;
47625;SDS011;33342;45.574;9.252;2023-03-31T10:45:51;17.80;;;4.70;;
47625;SDS011;33342;45.574;9.252;2023-03-31T10:48:31;11.80;;;4.90;;
47625;SDS011;33342;45.574;9.252;2023-03-31T10:51:13;16.08;;;7.63;;
47625;SDS011;33342;45.574;9.252;2023-03-31T11:07:38;17.20;;;4.63;;
47625;SDS011;33342;45.574;9.252;2023-03-31T11:13:00;12.57;;;4.90;;
47625;SDS011;33342;45.574;9.252;2023-03-31T11:24:12;16.42;;;4.55;;
47625;SDS011;33342;45.574;9.252;2023-03-31T11:30:02;13.80;;;4.90;;
47625;SDS011;33342;45.574;9.252;2023-03-31T11:32:46;14.18;;;4.43;;
47625;SDS011;33342;45.574;9.252;2023-03-31T11:35:40;15.35;;;5.03;;
47625;SDS011;33342;45.574;9.252;2023-03-31T11:41:01;12.70;;;5.00;;
47625;SDS011;33342;45.574;9.252;2023-03-31T11:43:34;16.00;;;4.43;;
47625;SDS011;33342;45.574;9.252;2023-03-31T11:46:10;14.05;;;4.95;;
47625;SDS011;33342;45.574;9.252;2023-03-31T11:51:22;13.18;;;4.93;;
47625;SDS011;33342;45.574;9.252;2023-03-31T11:53:56;14.25;;;5.90;;
47625;SDS011;33342;45.574;9.252;2023-03-31T11:56:32;14.48;;;5.32;;
47625;SDS011;33342;45.574;9.252;2023-03-31T11:59:03;11.02;;;4.10;;
47625;SDS011;33342;45.574;9.252;2023-03-31T12:04:44;11.65;;;5.43;;
47625;SDS011;33342;45.574;9.252;2023-03-31T12:07:28;16.52;;;5.53;;
47625;SDS011;33342;45.574;9.252;2023-03-31T12:10:04;13.05;;;4.88;;
47625;SDS011;33342;45.574;9.252;2023-03-31T12:12:46;13.93;;;5.38;;
47625;SDS011;33342;45.574;9.252;2023-03-31T12:15:36;14.48;;;4.95;;
47625;SDS011;33342;45.574;9.252;2023-03-31T12:18:14;17.20;;;4.85;;
47625;SDS011;33342;45.574;9.252;2023-03-31T12:20:46;13.10;;;4.80;;
47625;SDS011;33342;45.574;9.252;2023-03-31T12:23:18;16.10;;;4.82;;
47625;SDS011;33342;45.574;9.252;2023-03-31T12:26:11;15.82;;;5.57;;
47625;SDS011;33342;45.574;9.252;2023-03-31T12:28:40;13.65;;;4.50;;
47625;SDS011;33342;45.574;9.252;2023-03-31T12:31:10;14.77;;;5.57;;
47625;SDS011;33342;45.574;9.252;2023-03-31T12:34:00;10.50;;;3.67;;
47625;SDS011;33342;45.574;9.252;2023-03-31T12:47:13;15.77;;;5.40;;
47625;SDS011;33342;45.574;9.252;2023-03-31T12:55:31;15.57;;;5.90;;
47625;SDS011;33342;45.574;9.252;2023-03-31T13:01:09;9.88;;;4.20;;
47625;SDS011;33342;45.574;9.252;2023-03-31T13:16:48;15.35;;;5.75;;
47625;SDS011;33342;45.574;9.252;2023-03-31T13:19:30;18.17;;;9.15;;
47625;SDS011;33342;45.574;9.252;2023-03-31T13:22:02;16.98;;;8.10;;
47625;SDS011;33342;45.574;9.252;2023-03-31T13:24:31;17.27;;;7.80;;
47625;SDS011;33342;45.574;9.252;2023-03-31T13:30:00;13.52;;;5.78;;
47625;SDS011;33342;45.574;9.252;2023-03-31T13:32:27;9.25;;;4.85;;
47625;SDS011;33342;45.574;9.252;2023-03-31T13:35:00;15.38;;;6.15;;
47625;SDS011;33342;45.574;9.252;2023-03-31T13:37:38;13.02;;;5.88;;
47625;SDS011;33342;45.574;9.252;2023-03-31T13:48:43;18.23;;;5.57;;
47625;SDS011;33342;45.574;9.252;2023-03-31T14:07:48;15.02;;;5.43;;
47625;SDS011;33342;45.574;9.252;2023-03-31T14:10:26;13.43;;;5.60;;
47625;SDS011;33342;45.574;9.252;2023-03-31T14:13:12;14.27;;;6.07;;
47625;SDS011;33342;45.574;9.252;2023-03-31T14:15:46;11.95;;;4.47;;
47625;SDS011;33342;45.574;9.252;2023-03-31T14:18:19;19.50;;;4.63;;
47625;SDS011;33342;45.574;9.252;2023-03-31T14:24:03;18.17;;;6.43;;
47625;SDS011;33342;45.574;9.252;2023-03-31T14:32:06;12.02;;;5.55;;
47625;SDS011;33342;45.574;9.252;2023-03-31T14:37:30;11.45;;;4.72;;
47625;SDS011;33342;45.574;9.252;2023-03-31T14:39:57;12.23;;;5.20;;
47625;SDS011;33342;45.574;9.252;2023-03-31T14:42:38;18.65;;;5.55;;
47625;SDS011;33342;45.574;9.252;2023-03-31T14:45:15;14.38;;;5.88;;
47625;SDS011;33342;45.574;9.252;2023-03-31T14:47:54;14.00;;;5.75;;
47625;SDS011;33342;45.574;9.252;2023-03-31T14:50:29;14.13;;;5.55;;
47625;SDS011;33342;45.574;9.252;2023-03-31T14:53:00;17.55;;;5.70;;
47625;SDS011;33342;45.574;9.252;2023-03-31T14:55:28;19.13;;;5.70;;
47625;SDS011;33342;45.574;9.252;2023-03-31T14:58:25;15.15;;;5.85;;
47625;SDS011;33342;45.574;9.252;2023-03-31T15:00:56;13.40;;;5.70;;
47625;SDS011;33342;45.574;9.252;2023-03-31T15:03:24;10.98;;;5.03;;
47625;SDS011;33342;45.574;9.252;2023-03-31T15:05:54;20.58;;;6.25;;
47625;SDS011;33342;45.574;9.252;2023-03-31T15:08:23;17.35;;;5.40;;
47625;SDS011;33342;45.574;9.252;2023-03-31T15:10:53;14.10;;;6.00;;
47625;SDS011;33342;45.574;9.252;2023-03-31T15:13:39;14.70;;;5.65;;
47625;SDS011;33342;45.574;9.252;2023-03-31T15:16:19;14.77;;;5.60;;
47625;SDS011;33342;45.574;9.252;2023-03-31T15:18:52;14.05;;;4.72;;
47625;SDS011;33342;45.574;9.252;2023-03-31T15:21:20;16.25;;;6.85;;
47625;SDS011;33342;45.574;9.252;2023-03-31T15:23:54;12.75;;;6.00;;
47625;SDS011;33342;45.574;9.252;2023-03-31T15:26:28;13.27;;;5.43;;
47625;SDS011;33342;45.574;9.252;2023-03-31T15:29:08;13.23;;;6.28;;
47625;SDS011;33342;45.574;9.252;2023-03-31T15:31:40;17.08;;;6.75;;
47625;SDS011;33342;45.574;9.252;2023-03-31T15:34:14;13.38;;;5.90;;
47625;SDS011;33342;45.574;9.252;2023-03-31T15:39:25;15.55;;;5.18;;
47625;SDS011;33342;45.574;9.252;2023-03-31T15:41:54;17.55;;;8.38;;
47625;SDS011;33342;45.574;9.252;2023-03-31T15:44:38;19.00;;;8.25;;
47625;SDS011;33342;45.574;9.252;2023-03-31T15:47:17;18.17;;;8.68;;
47625;SDS011;33342;45.574;9.252;2023-03-31T15:49:50;18.10;;;9.27;;
47625;SDS011;33342;45.574;9.252;2023-03-31T15:52:27;15.88;;;8.02;;
47625;SDS011;33342;45.574;9.252;2023-03-31T15:55:38;19.88;;;9.02;;
47625;SDS011;33342;45.574;9.252;2023-03-31T15:57:59;19.48;;;9.35;;
47625;SDS011;33342;45.574;9.252;2023-03-31T16:02:57;14.35;;;8.48;;
47625;SDS011;33342;45.574;9.252;2023-03-31T16:08:23;17.75;;;9.60;;
47625;SDS011;33342;45.574;9.252;2023-03-31T16:11:01;14.48;;;8.25;;
47625;SDS011;33342;45.574;9.252;2023-03-31T16:13:39;16.25;;;8.70;;
47625;SDS011;33342;45.574;9.252;2023-03-31T16:16:09;15.90;;;8.80;;
47625;SDS011;33342;45.574;9.252;2023-03-31T16:18:42;12.85;;;7.97;;
47625;SDS011;33342;45.574;9.252;2023-03-31T16:21:17;20.40;;;8.27;;
47625;SDS011;33342;45.574;9.252;2023-03-31T16:23:53;17.15;;;11.48;;
47625;SDS011;33342;45.574;9.252;2023-03-31T16:26:23;14.63;;;8.70;;
47625;SDS011;33342;45.574;9.252;2023-03-31T16:28:54;20.00;;;9.70;;
47625;SDS011;33342;45.574;9.252;2023-03-31T16:31:36;17.77;;;8.13;;
47625;SDS011;33342;45.574;9.252;2023-03-31T16:34:06;17.95;;;8.02;;
47625;SDS011;33342;45.574;9.252;2023-03-31T16:36:35;12.88;;;7.30;;
47625;SDS011;33342;45.574;9.252;2023-03-31T16:39:03;16.42;;;8.07;;
47625;SDS011;33342;45.574;9.252;2023-03-31T16:41:31;18.48;;;8.30;;
47625;SDS011;33342;45.574;9.252;2023-03-31T16:44:00;19.05;;;8.38;;
47625;SDS011;33342;45.574;9.252;2023-03-31T16:46:27;13.63;;;7.20;;
47625;SDS011;33342;45.574;9.252;2023-03-31T16:48:54;16.35;;;7.63;;
47625;SDS011;33342;45.574;9.252;2023-03-31T16:51:22;19.20;;;7.45;;
47625;SDS011;33342;45.574;9.252;2023-03-31T16:53:48;14.80;;;8.18;;
47625;SDS011;33342;45.574;9.252;2023-03-31T16:56:16;17.30;;;9.18;;
47625;SDS011;33342;45.574;9.252;2023-03-31T16:58:43;16.05;;;8.43;;
47625;SDS011;33342;45.574;9.252;2023-03-31T17:01:10;16.60;;;8.05;;
47625;SDS011;33342;45.574;9.252;2023-03-31T17:03:38;16.50;;;8.38;;
47625;SDS011;33342;45.574;9.252;2023-03-31T17:06:08;17.75;;;8.95;;
47625;SDS011;33342;45.574;9.252;2023-03-31T17:08:37;20.75;;;9.18;;
47625;SDS011;33342;45.574;9.252;2023-03-31T17:11:11;15.82;;;8.38;;
47625;SDS011;33342;45.574;9.252;2023-03-31T17:13:40;16.10;;;9.05;;
47625;SDS011;33342;45.574;9.252;2023-03-31T17:16:09;15.43;;;8.90;;
47625;SDS011;33342;45.574;9.252;2023-03-31T17:18:44;16.30;;;9.10;;
47625;SDS011;33342;45.574;9.252;2023-03-31T17:21:12;19.83;;;8.07;;
47625;SDS011;33342;45.574;9.252;2023-03-31T17:23:40;17.92;;;9.82;;
47625;SDS011;33342;45.574;9.252;2023-03-31T17:26:08;19.75;;;10.52;;
47625;SDS011;33342;45.574;9.252;2023-03-31T17:28:38;19.50;;;9.73;;
47625;SDS011;33342;45.574;9.252;2023-03-31T17:31:13;16.80;;;9.80;;
47625;SDS011;33342;45.574;9.252;2023-03-31T17:33:43;16.35;;;7.78;;
47625;SDS011;33342;45.574;9.252;2023-03-31T17:36:10;18.08;;;8.68;;
47625;SDS011;33342;45.574;9.252;2023-03-31T17:38:37;16.95;;;10.18;;
47625;SDS011;33342;45.574;9.252;2023-03-31T17:41:06;17.67;;;9.50;;
47625;SDS011;33342;45.574;9.252;2023-03-31T17:43:35;16.85;;;7.80;;
47625;SDS011;33342;45.574;9.252;2023-03-31T17:46:04;14.07;;;7.85;;
47625;SDS011;33342;45.574;9.252;2023-03-31T17:48:36;15.32;;;8.15;;
47625;SDS011;33342;45.574;9.252;2023-03-31T17:51:05;16.30;;;9.77;;
47625;SDS011;33342;45.574;9.252;2023-03-31T17:53:33;18.10;;;10.93;;
47625;SDS011;33342;45.574;9.252;2023-03-31T17:56:02;14.98;;;10.02;;
47625;SDS011;33342;45.574;9.252;2023-03-31T17:58:30;19.35;;;11.82;;
47625;SDS011;33342;45.574;9.252;2023-03-31T18:00:57;17.45;;;10.52;;
47625;SDS011;33342;45.574;9.252;2023-03-31T18:03:28;14.02;;;8.85;;
47625;SDS011;33342;45.574;9.252;2023-03-31T18:05:55;15.70;;;10.85;;
47625;SDS011;33342;45.574;9.252;2023-03-31T18:08:23;15.40;;;8.70;;
47625;SDS011;33342;45.574;9.252;2023-03-31T18:10:50;14.90;;;8.57;;
47625;SDS011;33342;45.574;9.252;2023-03-31T18:13:16;13.52;;;10.05;;